Time;durP1;ratioP1;P1;durP2;ratioP2;P2;SDS_P1;SDS_P2;PMS_P1;PMS_P2;Temp;Humidity;BMP_temperature;BMP_pressure;BME280_temperature;BME280_humidity;BME280_pressure;Samples;Min_cycle;Max_cycle;Signal;HPM_P1;HPM_P2
2021/05/17 00:02:03;;;;;;;25.25;19.48;;;;;;;8.91;100.00;99575.09;4983607;28;20066;-80
2021/05/17 00:04:33;;;;;;;26.60;18.60;;;;;;;8.93;100.00;99583.78;4979716;28;20060;-80
2021/05/17 00:07:00;;;;;;;26.75;20.88;;;;;;;8.95;100.00;99583.63;4950744;28;20126;-82
2021/05/17 00:09:27;;;;;;;26.90;20.08;;;;;;;8.93;100.00;99577.59;4987872;28;20687;-82
2021/05/17 00:11:54;;;;;;;29.52;21.75;;;;;;;8.94;100.00;99576.56;4969114;28;20061;-81
2021/05/17 00:14:21;;;;;;;27.42;20.98;;;;;;;8.95;100.00;99580.94;4979815;28;20103;-81
2021/05/17 00:16:47;;;;;;;28.33;22.42;;;;;;;8.98;100.00;99577.88;4963763;28;20133;-81
2021/05/17 00:19:12;;;;;;;30.15;21.75;;;;;;;9.00;100.00;99584.69;4991217;28;20185;-82
2021/05/17 00:21:39;;;;;;;29.58;22.23;;;;;;;9.02;100.00;99569.28;4980362;28;20049;-81
2021/05/17 00:24:06;;;;;;;29.88;21.98;;;;;;;9.05;100.00;99578.81;4976344;28;20043;-82
2021/05/17 00:26:32;;;;;;;31.08;23.17;;;;;;;9.02;100.00;99577.31;4988165;28;20594;-81
2021/05/17 00:28:58;;;;;;;28.40;21.25;;;;;;;9.02;100.00;99579.16;4989750;28;20133;-81
2021/05/17 00:31:23;;;;;;;27.80;21.40;;;;;;;9.04;100.00;99583.31;4972653;28;20403;-81
2021/05/17 00:33:49;;;;;;;29.52;22.60;;;;;;;9.09;100.00;99581.94;4991929;28;20034;-82
2021/05/17 00:36:16;;;;;;;30.58;22.45;;;;;;;9.09;100.00;99585.47;4986293;28;20038;-82
2021/05/17 00:38:42;;;;;;;28.08;22.13;;;;;;;9.10;100.00;99586.28;4981694;28;20035;-81
2021/05/17 00:41:07;;;;;;;27.85;22.02;;;;;;;9.13;100.00;99586.75;4987409;28;20491;-80
2021/05/17 00:43:37;;;;;;;30.10;21.58;;;;;;;9.16;100.00;99589.06;4972012;28;20058;-81
2021/05/17 00:46:04;;;;;;;27.77;21.58;;;;;;;9.12;100.00;99595.81;4987924;28;20049;-81
2021/05/17 00:48:31;;;;;;;26.98;21.02;;;;;;;9.07;100.00;99592.00;4976336;28;20061;-81
2021/05/17 00:50:57;;;;;;;26.48;20.15;;;;;;;9.12;100.00;99595.81;4984117;28;20054;-81
2021/05/17 00:53:22;;;;;;;28.50;21.35;;;;;;;9.20;100.00;99597.53;4986901;28;20169;-81
2021/05/17 00:55:49;;;;;;;27.08;21.65;;;;;;;9.23;100.00;99581.94;4982886;28;20517;-81
2021/05/17 00:58:14;;;;;;;30.67;23.15;;;;;;;9.25;100.00;99589.78;4987328;28;20053;-81
2021/05/17 01:00:42;;;;;;;29.65;18.63;;;;;;;9.32;100.00;99589.88;4985884;28;20038;-82
2021/05/17 01:03:09;;;;;;;22.73;16.90;;;;;;;9.35;100.00;99592.19;4982861;28;20050;-81
2021/05/17 01:05:34;;;;;;;28.23;16.40;;;;;;;9.40;100.00;99595.13;4988882;28;20121;-81
2021/05/17 01:08:02;;;;;;;20.20;15.40;;;;;;;9.46;100.00;99589.03;4978597;28;20134;-82
2021/05/17 01:10:29;;;;;;;22.92;13.75;;;;;;;9.56;100.00;99596.81;4985086;28;20054;-81
2021/05/17 01:12:55;;;;;;;21.35;15.02;;;;;;;9.58;100.00;99587.56;4978060;28;20118;-82
2021/05/17 01:15:21;;;;;;;20.50;13.27;;;;;;;9.57;100.00;99593.91;4982865;28;20141;-82
2021/05/17 01:17:47;;;;;;;20.02;12.98;;;;;;;9.59;100.00;99586.53;4984549;28;20050;-82
2021/05/17 01:20:16;;;;;;;20.45;12.80;;;;;;;9.61;100.00;99589.88;4985077;28;20128;-82
2021/05/17 01:22:55;;;;;;;17.98;12.18;;;;;;;9.64;100.00;99594.84;4958190;28;20403;-82
2021/05/17 01:25:23;;;;;;;16.17;11.27;;;;;;;9.63;100.00;99593.16;5002312;28;20570;-83
2021/05/17 01:27:50;;;;;;;14.50;9.82;;;;;;;9.62;100.00;99591.50;4998304;28;20076;-83
2021/05/17 01:30:18;;;;;;;15.25;10.38;;;;;;;9.64;100.00;99597.53;4969479;28;20050;-83
2021/05/17 01:32:45;;;;;;;13.55;9.45;;;;;;;9.67;100.00;99599.00;4987632;28;20042;-83
2021/05/17 01:35:11;;;;;;;17.92;10.48;;;;;;;9.67;100.00;99594.47;4972263;28;20046;-83
2021/05/17 01:37:38;;;;;;;17.13;11.45;;;;;;;9.70;100.00;99591.41;4972126;28;20038;-83
2021/05/17 01:40:06;;;;;;;18.23;10.57;;;;;;;9.62;100.00;99585.34;4990150;28;20389;-83
2021/05/17 01:42:33;;;;;;;15.90;10.63;;;;;;;9.56;100.00;99586.91;4981460;28;20042;-82
2021/05/17 01:45:01;;;;;;;19.60;11.75;;;;;;;9.54;100.00;99588.09;4963581;28;20133;-82
2021/05/17 01:47:29;;;;;;;16.88;11.52;;;;;;;9.56;100.00;99586.91;4966770;28;20056;-82
2021/05/17 01:49:58;;;;;;;19.60;12.13;;;;;;;9.54;100.00;99580.91;4979570;28;20045;-83
2021/05/17 01:52:25;;;;;;;20.05;14.23;;;;;;;9.61;100.00;99573.78;4982735;28;20396;-83
2021/05/17 01:54:52;;;;;;;19.90;14.02;;;;;;;9.60;100.00;99576.66;4989006;28;20050;-83
2021/05/17 01:57:19;;;;;;;21.88;14.40;;;;;;;9.58;100.00;99573.31;4970020;28;20050;-83
2021/05/17 01:59:45;;;;;;;26.70;16.00;;;;;;;9.57;100.00;99564.47;4971696;28;20089;-83
2021/05/17 02:02:10;;;;;;;22.95;16.73;;;;;;;9.54;100.00;99567.50;4961476;28;20479;-82
2021/05/17 02:04:37;;;;;;;26.50;14.57;;;;;;;9.47;100.00;99583.50;4982839;28;20073;-83
2021/05/17 02:07:03;;;;;;;24.60;15.75;;;;;;;9.42;100.00;99575.19;4975834;28;20540;-82
2021/05/17 02:09:37;;;;;;;19.42;15.13;;;;;;;9.39;100.00;99583.59;4970681;28;20053;-82
2021/05/17 02:12:04;;;;;;;19.80;13.30;;;;;;;9.35;100.00;99584.16;4972900;28;21378;-83
2021/05/17 02:14:30;;;;;;;19.38;13.55;;;;;;;9.34;100.00;99588.69;4985722;28;20047;-83
2021/05/17 02:16:55;;;;;;;21.15;12.52;;;;;;;9.31;100.00;99589.03;4970034;28;20047;-83
2021/05/17 02:19:24;;;;;;;18.35;12.90;;;;;;;9.36;100.00;99591.19;4984370;28;20039;-82
2021/05/17 02:21:50;;;;;;;14.02;9.23;;;;;;;9.22;100.00;99599.03;4987222;28;20053;-83
2021/05/17 02:24:16;;;;;;;14.85;10.35;;;;;;;9.26;100.00;99591.44;4989883;28;20495;-84
2021/05/17 02:26:42;;;;;;;14.32;9.57;;;;;;;9.26;100.00;99586.94;4972128;28;20049;-82
2021/05/17 02:29:09;;;;;;;15.82;9.88;;;;;;;9.21;100.00;99586.66;4975294;28;20039;-83
2021/05/17 02:31:35;;;;;;;18.10;11.15;;;;;;;9.22;100.00;99595.50;4981530;28;20049;-84
2021/05/17 02:34:01;;;;;;;18.85;10.48;;;;;;;9.29;100.00;99590.25;4984114;28;20042;-84
2021/05/17 02:36:27;;;;;;;16.58;11.80;;;;;;;9.31;100.00;99590.91;4961972;28;20073;-83
2021/05/17 02:38:53;;;;;;;17.38;11.90;;;;;;;9.30;100.00;99586.56;4985726;28;20570;-84
2021/05/17 02:41:21;;;;;;;17.63;11.27;;;;;;;9.29;100.00;99592.91;4986011;28;20068;-84
2021/05/17 02:43:47;;;;;;;17.80;10.47;;;;;;;9.26;100.00;99592.31;4992091;28;20046;-82
2021/05/17 02:46:13;;;;;;;17.40;10.75;;;;;;;9.20;100.00;99601.03;4983231;28;20455;-83
2021/05/17 02:48:41;;;;;;;19.42;10.77;;;;;;;9.20;100.00;99602.88;4946356;28;20054;-84
2021/05/17 02:51:12;;;;;;;20.48;11.90;;;;;;;9.20;100.00;99603.72;4981165;28;20062;-83
2021/05/17 02:53:37;;;;;;;20.90;13.77;;;;;;;9.25;100.00;99600.50;4985341;28;20046;-84
2021/05/17 02:56:14;;;;;;;19.38;13.35;;;;;;;9.23;100.00;99603.34;4979092;28;20193;-83
2021/05/17 02:58:45;;;;;;;19.33;13.88;;;;;;;9.22;100.00;99601.69;4978209;28;20503;-83
2021/05/17 03:01:34;;;;;;;19.98;13.65;;;;;;;9.21;100.00;99608.06;4977620;28;20046;-83
2021/05/17 03:04:15;;;;;;;21.88;15.60;;;;;;;9.23;100.00;99614.06;4975064;28;20046;-83
2021/05/17 03:06:47;;;;;;;22.70;15.35;;;;;;;9.27;100.00;99604.66;4984142;28;20550;-83
2021/05/17 03:09:14;;;;;;;23.42;16.48;;;;;;;9.24;100.00;99607.69;4972887;28;20038;-83
2021/05/17 03:11:42;;;;;;;25.70;17.85;;;;;;;9.30;100.00;99602.63;4989836;28;20439;-84
2021/05/17 03:14:08;;;;;;;24.58;17.52;;;;;;;9.32;100.00;99601.44;4980831;28;20062;-83
2021/05/17 03:16:37;;;;;;;29.15;19.52;;;;;;;9.35;100.00;99598.38;4978045;28;20049;-83
2021/05/17 03:19:02;;;;;;;29.38;20.77;;;;;;;9.36;100.00;99593.84;4960270;28;20084;-83
2021/05/17 03:21:30;;;;;;;36.30;23.75;;;;;;;9.35;100.00;99603.75;4984406;28;20046;-83
2021/05/17 03:23:56;;;;;;;34.78;23.70;;;;;;;9.32;100.00;99597.91;4966056;28;20081;-84
2021/05/17 03:26:26;;;;;;;36.53;25.20;;;;;;;9.32;100.00;99601.44;4978470;28;20070;-84
2021/05/17 03:28:52;;;;;;;34.90;24.38;;;;;;;9.34;100.00;99601.25;4984474;28;20338;-83
2021/05/17 03:31:18;;;;;;;41.75;28.23;;;;;;;9.36;100.00;99604.56;4985703;28;20046;-84
2021/05/17 03:33:43;;;;;;;38.90;25.05;;;;;;;9.30;100.00;99608.81;4975123;28;20051;-84
2021/05/17 03:36:09;;;;;;;48.40;29.42;;;;;;;9.32;100.00;99604.13;4984595;28;20049;-83
2021/05/17 03:38:34;;;;;;;46.80;31.63;;;;;;;9.36;100.00;99602.72;4991932;28;20554;-84
2021/05/17 03:41:00;;;;;;;47.85;31.55;;;;;;;9.38;100.00;99600.69;4978987;28;20047;-85
2021/05/17 03:43:25;;;;;;;48.45;33.70;;;;;;;9.40;100.00;99605.84;4985138;28;20047;-83
2021/05/17 03:45:52;;;;;;;55.50;36.15;;;;;;;9.40;100.00;99605.84;4992955;28;20049;-83
2021/05/17 03:48:17;;;;;;;56.95;37.03;;;;;;;9.40;100.00;99609.34;4989126;28;20038;-82
2021/05/17 03:50:43;;;;;;;56.22;37.55;;;;;;;9.41;100.00;99599.50;4984768;28;20510;-83
2021/05/17 03:53:08;;;;;;;62.83;38.80;;;;;;;9.46;100.00;99600.56;4961763;28;20100;-84
2021/05/17 03:55:34;;;;;;;54.75;37.55;;;;;;;9.48;100.00;99605.75;4984808;28;20085;-82
2021/05/17 03:58:00;;;;;;;61.80;40.13;;;;;;;9.49;100.00;99602.03;4979021;28;20137;-82
2021/05/17 04:00:31;;;;;;;56.97;40.15;;;;;;;9.45;100.00;99603.44;4977657;28;20125;-81
2021/05/17 04:03:00;;;;;;;62.10;40.03;;;;;;;9.45;100.00;99606.13;4986522;28;20380;-83
2021/05/17 04:05:42;;;;;;;61.83;38.30;;;;;;;9.47;100.00;99604.09;4990932;28;20046;-83
2021/05/17 04:12:32;;;;;;;59.25;39.38;;;;;;;9.48;100.00;99611.09;4974037;28;20048;-82
2021/05/17 04:13:46;;;;;;;60.95;36.60;;;;;;;9.46;100.00;99607.78;4997325;28;20050;-84
2021/05/17 04:16:14;;;;;;;56.58;39.13;;;;;;;9.51;100.00;99613.41;4964682;28;20043;-83
2021/05/17 04:18:42;;;;;;;58.65;37.25;;;;;;;9.49;100.00;99610.94;4976706;28;20137;-83
2021/05/17 04:21:09;;;;;;;60.15;39.08;;;;;;;9.52;100.00;99612.38;4970109;28;20097;-83
2021/05/17 04:23:41;;;;;;;52.25;34.53;;;;;;;9.51;100.00;99615.28;4966260;28;20381;-83
2021/05/17 04:26:07;;;;;;;53.97;34.80;;;;;;;9.57;100.00;99610.00;4982426;28;20045;-83
2021/05/17 04:28:37;;;;;;;51.33;35.15;;;;;;;9.59;100.00;99616.00;4985497;28;20049;-83
2021/05/17 04:31:04;;;;;;;51.10;35.08;;;;;;;9.66;100.00;99618.75;4986472;28;20173;-83
2021/05/17 04:33:30;;;;;;;49.90;32.47;;;;;;;9.61;100.00;99619.31;4988787;28;20065;-84
2021/05/17 04:35:55;;;;;;;46.67;30.65;;;;;;;9.64;100.00;99616.28;4983042;28;20034;-83
2021/05/17 04:38:22;;;;;;;43.22;28.08;;;;;;;9.64;100.00;99616.28;4962285;28;20054;-84
2021/05/17 04:40:50;;;;;;;36.55;24.77;;;;;;;9.61;100.00;99616.66;4973299;28;20077;-83
2021/05/17 04:43:15;;;;;;;38.10;25.58;;;;;;;9.66;100.00;99621.44;4962659;28;20061;-84
2021/05/17 04:45:41;;;;;;;35.90;25.30;;;;;;;9.65;100.00;99623.28;4978756;28;20838;-82
2021/05/17 04:48:06;;;;;;;34.95;22.60;;;;;;;9.69;100.00;99626.41;4977972;28;20059;-84
2021/05/17 04:50:33;;;;;;;33.83;24.65;;;;;;;9.76;100.00;99618.47;4996366;28;20121;-82
2021/05/17 04:52:59;;;;;;;32.67;23.27;;;;;;;9.77;100.00;99630.84;4981232;28;20078;-84
2021/05/17 04:55:25;;;;;;;30.90;20.98;;;;;;;9.79;100.00;99623.47;4980077;28;20140;-83
2021/05/17 04:57:50;;;;;;;26.52;20.08;;;;;;;9.81;100.00;99624.09;4961986;28;20097;-84
2021/05/17 05:00:16;;;;;;;26.08;16.33;;;;;;;9.80;100.00;99625.09;4961641;28;20047;-85
2021/05/17 05:02:42;;;;;;;28.60;18.33;;;;;;;9.84;100.00;99629.06;4987242;28;20031;-83
2021/05/17 05:05:08;;;;;;;22.17;16.13;;;;;;;9.88;100.00;99628.50;5001815;28;20053;-83
2021/05/17 05:07:34;;;;;;;22.88;14.95;;;;;;;9.87;100.00;99631.41;4970998;28;20042;-83
2021/05/17 05:10:00;;;;;;;20.83;15.27;;;;;;;9.89;100.00;99634.69;4969224;28;20046;-85
2021/05/17 05:12:26;;;;;;;22.67;13.18;;;;;;;9.89;100.00;99634.69;4980418;28;20046;-84
2021/05/17 05:14:52;;;;;;;19.63;12.77;;;;;;;9.93;100.00;99630.63;4952759;28;20042;-84
2021/05/17 05:17:19;;;;;;;18.80;11.82;;;;;;;9.95;100.00;99631.25;4983982;28;20045;-85
2021/05/17 05:19:45;;;;;;;16.05;11.32;;;;;;;9.94;100.00;99625.06;4999080;28;20042;-85
2021/05/17 05:22:11;;;;;;;15.55;11.45;;;;;;;9.95;100.00;99636.63;4956085;28;20415;-85
2021/05/17 05:24:37;;;;;;;18.50;12.57;;;;;;;10.01;100.00;99630.53;4963932;28;20054;-85
2021/05/17 05:27:25;;;;;;;17.70;12.40;;;;;;;10.06;100.00;99630.78;4982627;28;20105;-84
2021/05/17 05:34:52;;;;;;;15.18;10.55;;;;;;;10.05;100.00;99636.34;4985276;28;20062;-86
2021/05/17 05:37:17;;;;;;;16.17;10.43;;;;;;;10.10;100.00;99634.75;4970684;28;20085;-84
2021/05/17 05:39:43;;;;;;;13.07;9.77;;;;;;;10.17;100.00;99635.63;4988194;28;20073;-85
2021/05/17 05:42:09;;;;;;;16.67;9.98;;;;;;;10.22;100.00;99627.03;4963590;28;20050;-84
2021/05/17 05:44:45;;;;;;;12.95;9.18;;;;;;;10.27;100.00;99637.22;4983821;28;20047;-84
2021/05/17 05:47:17;;;;;;;25.95;10.93;;;;;;;10.26;100.00;99640.88;4954534;28;20460;-85
2021/05/17 05:49:47;;;;;;;14.80;8.45;;;;;;;10.19;100.00;99635.47;4977012;28;20121;-84
2021/05/17 05:52:14;;;;;;;13.50;8.60;;;;;;;10.27;100.00;99638.06;4968326;28;20043;-84
2021/05/17 05:54:40;;;;;;;12.70;7.88;;;;;;;10.23;100.00;99630.53;4987447;28;20092;-83
2021/05/17 05:57:09;;;;;;;10.25;7.40;;;;;;;10.27;100.00;99638.06;4982793;28;20125;-84
2021/05/17 05:59:34;;;;;;;;;;;;;;;10.35;100.00;99645.97;4973757;28;20556;-83
2021/05/17 06:02:00;;;;;;;10.82;7.57;;;;;;;10.26;100.00;99635.53;4988785;28;19918;-84
2021/05/17 06:04:26;;;;;;;13.05;7.65;;;;;;;10.31;100.00;99646.53;4985317;28;20157;-85
2021/05/17 06:06:51;;;;;;;11.48;7.38;;;;;;;10.35;100.00;99650.50;4977558;28;20054;-84
2021/05/17 06:09:17;;;;;;;10.40;7.55;;;;;;;10.37;100.00;99646.59;4967188;28;20046;-84
2021/05/17 06:11:42;;;;;;;10.45;7.68;;;;;;;10.48;100.00;99645.28;4981538;28;20049;-84
2021/05/17 06:14:09;;;;;;;9.75;6.50;;;;;;;10.49;100.00;99641.56;4982648;28;20038;-85
2021/05/17 06:16:35;;;;;;;10.43;7.57;;;;;;;10.52;100.00;99643.03;4970178;28;20399;-84
2021/05/17 06:19:01;;;;;;;10.65;6.72;;;;;;;10.52;100.00;99645.72;4988996;28;20034;-84
2021/05/17 06:21:28;;;;;;;9.13;7.05;;;;;;;10.52;100.00;99646.53;4968675;28;20038;-84
2021/05/17 06:23:54;;;;;;;10.93;7.43;;;;;;;10.57;100.00;99646.81;4971685;28;20503;-84
2021/05/17 06:26:20;;;;;;;10.60;7.03;;;;;;;10.57;100.00;99651.34;4986290;28;20137;-84
2021/05/17 06:28:45;;;;;;;11.10;8.07;;;;;;;10.61;100.00;99648.06;4970024;28;20049;-84
2021/05/17 06:31:12;;;;;;;10.93;8.40;;;;;;;10.68;100.00;99650.00;4987624;28;20062;-84
2021/05/17 06:33:41;;;;;;;11.25;7.85;;;;;;;10.68;100.00;99650.84;4975881;28;20072;-84
2021/05/17 06:36:10;;;;;;;10.05;7.70;;;;;;;10.72;100.00;99660.16;4969853;28;20062;-84
2021/05/17 06:38:39;;;;;;;11.10;7.00;;;;;;;10.72;100.00;99652.09;4967609;28;20043;-84
2021/05/17 06:41:04;;;;;;;10.07;7.15;;;;;;;10.75;100.00;99656.25;4981717;28;20038;-84
2021/05/17 06:43:30;;;;;;;9.45;6.65;;;;;;;10.78;100.00;99658.53;4958187;28;20105;-84
2021/05/17 06:45:55;;;;;;;9.35;6.40;;;;;;;10.83;100.00;99664.16;4983870;28;20093;-84
2021/05/17 06:48:21;;;;;;;10.05;6.80;;;;;;;10.84;100.00;99665.81;4970896;28;20510;-83
2021/05/17 06:50:47;;;;;;;9.32;6.60;;;;;;;10.90;100.00;99656.16;4965469;28;20035;-83
2021/05/17 06:53:12;;;;;;;9.23;6.35;;;;;;;10.91;100.00;99655.97;4979770;28;20042;-83
2021/05/17 06:58:25;;;;;;;10.77;5.60;;;;;;;10.98;100.00;99667.59;4987606;28;20034;-84
2021/05/17 07:00:50;;;;;;;10.75;6.50;;;;;;;11.04;100.00;99666.81;4981618;28;20046;-84
2021/05/17 07:03:16;;;;;;;9.35;6.00;;;;;;;11.06;100.00;99670.13;4971887;28;20045;-84
2021/05/17 07:05:42;;;;;;;9.13;5.40;;;;;;;11.05;100.00;99663.13;4970140;28;20665;-84
2021/05/17 07:13:21;;;;;;;9.05;5.53;;;;;;;11.06;100.00;99675.50;4980710;28;20074;-84
2021/05/17 07:15:47;;;;;;;11.45;6.05;;;;;;;11.13;100.00;99666.66;4984589;28;20046;-84
2021/05/17 07:18:14;;;;;;;8.85;6.68;;;;;;;11.18;100.00;99672.28;4982100;28;20043;-84
2021/05/17 07:25:59;;;;;;;13.15;5.50;;;;;;;11.20;100.00;99670.25;4969466;28;20054;-84
2021/05/17 07:28:25;;;;;;;7.70;5.20;;;;;;;11.25;100.00;99675.88;4972472;28;20053;-83
2021/05/17 07:30:51;;;;;;;11.95;5.70;;;;;;;11.27;100.00;99680.00;4968114;28;20030;-82
2021/05/17 07:33:16;;;;;;;10.70;5.75;;;;;;;11.29;100.00;99675.25;4983941;28;20073;-83
2021/05/17 07:35:43;;;;;;;9.13;5.90;;;;;;;11.40;100.00;99676.59;4985814;28;20030;-83
2021/05/17 07:38:08;;;;;;;9.20;4.78;;;;;;;11.38;100.00;99684.00;4976653;28;20043;-83
2021/05/17 07:40:34;;;;;;;9.40;4.32;;;;;;;11.41;100.00;99674.72;4988545;28;20411;-83
2021/05/17 07:43:00;;;;;;;11.48;5.13;;;;;;;11.48;100.00;99672.91;4981346;28;20118;-83
2021/05/17 07:45:26;;;;;;;7.20;4.47;;;;;;;11.49;100.00;99675.41;4987381;28;20093;-84
2021/05/17 07:47:51;;;;;;;10.05;4.72;;;;;;;11.55;100.00;99675.63;4983616;28;20046;-84
2021/05/17 07:50:17;;;;;;;7.75;5.00;;;;;;;11.64;99.92;99679.81;4972188;28;20041;-83
2021/05/17 07:52:43;;;;;;;7.68;4.00;;;;;;;11.63;98.52;99676.31;4989649;28;20391;-84
2021/05/17 07:55:10;;;;;;;7.15;3.72;;;;;;;11.65;98.79;99668.88;4988890;28;20479;-83
2021/05/17 07:57:35;;;;;;;8.45;4.85;;;;;;;11.68;99.59;99678.38;4984458;28;20039;-83
2021/05/17 08:00:01;;;;;;;6.70;3.40;;;;;;;11.65;99.45;99686.84;4987041;28;20038;-83
2021/05/17 08:02:27;;;;;;;8.15;4.70;;;;;;;11.72;99.94;99682.34;4983398;28;20327;-84
2021/05/17 08:04:52;;;;;;;7.70;4.60;;;;;;;11.69;99.67;99682.75;4988477;28;20066;-83
2021/05/17 08:07:19;;;;;;;7.45;4.70;;;;;;;11.65;99.74;99679.63;4983262;28;20047;-84
2021/05/17 08:09:45;;;;;;;11.52;5.25;;;;;;;11.62;99.02;99682.69;4988508;28;20031;-83
2021/05/17 08:12:11;;;;;;;9.48;3.92;;;;;;;11.68;100.00;99681.06;4981586;28;20406;-83
2021/05/17 08:14:37;;;;;;;10.85;4.32;;;;;;;11.71;98.94;99673.47;4952978;28;20047;-84
2021/05/17 08:17:04;;;;;;;7.95;4.10;;;;;;;11.74;98.79;99683.00;4997459;28;20038;-84
2021/05/17 08:19:29;;;;;;;9.98;4.75;;;;;;;11.82;99.28;99681.97;4978989;28;20093;-83
2021/05/17 08:21:55;;;;;;;7.20;3.90;;;;;;;11.85;98.65;99685.13;4964335;28;20542;-84
2021/05/17 08:24:22;;;;;;;7.60;4.15;;;;;;;11.86;98.07;99686.78;4988064;28;20081;-85
2021/05/17 08:26:47;;;;;;;6.07;3.92;;;;;;;11.75;97.39;99676.56;4984006;28;20052;-83
2021/05/17 08:29:13;;;;;;;8.20;3.88;;;;;;;11.76;97.07;99672.84;4971973;28;20047;-83
2021/05/17 08:31:39;;;;;;;9.88;3.63;;;;;;;11.79;96.84;99679.69;4936381;29;20039;-84
2021/05/17 08:34:04;;;;;;;7.75;3.30;;;;;;;11.87;96.71;99683.06;4969437;28;20058;-84
2021/05/17 08:36:30;;;;;;;6.72;3.17;;;;;;;11.85;95.71;99679.75;4974267;28;20112;-84
2021/05/17 08:38:55;;;;;;;7.95;3.03;;;;;;;11.86;94.28;99686.78;4985428;28;20395;-83
2021/05/17 08:41:21;;;;;;;7.85;3.65;;;;;;;11.96;95.87;99694.47;4954715;28;20047;-84
2021/05/17 08:43:47;;;;;;;5.63;3.15;;;;;;;12.11;95.33;99686.28;4964506;28;20045;-84
2021/05/17 08:46:13;;;;;;;8.65;3.72;;;;;;;12.10;94.18;99692.69;4996826;28;20117;-85
2021/05/17 08:48:47;;;;;;;7.93;4.00;;;;;;;12.14;94.31;99685.88;4989769;28;20053;-84
2021/05/17 08:51:18;;;;;;;6.65;3.95;;;;;;;12.14;94.72;99689.41;4983725;28;20048;-83
2021/05/17 08:53:49;;;;;;;8.50;4.05;;;;;;;12.18;94.88;99687.97;4983763;28;20305;-85
2021/05/17 08:56:14;;;;;;;8.25;3.65;;;;;;;12.12;93.90;99690.63;4987412;28;20046;-84
2021/05/17 08:58:39;;;;;;;7.40;3.65;;;;;;;12.12;94.36;99678.00;4986978;28;20061;-84
2021/05/17 09:01:05;;;;;;;8.45;3.83;;;;;;;12.10;95.78;99692.69;4969329;28;20125;-86
2021/05/17 09:03:31;;;;;;;7.53;3.65;;;;;;;11.97;96.26;99690.78;4966418;28;20042;-85
2021/05/17 09:05:57;;;;;;;11.23;4.30;;;;;;;11.99;99.17;99699.47;4984708;28;20074;-86
2021/05/17 09:08:25;;;;;;;6.65;4.97;;;;;;;11.94;99.45;99696.56;4990851;28;20038;-86
2021/05/17 09:10:51;;;;;;;8.38;5.03;;;;;;;12.02;99.20;99690.16;4990905;28;20121;-86
2021/05/17 09:13:18;;;;;;;10.77;5.60;;;;;;;12.08;100.00;99689.34;4990486;28;20527;-85
2021/05/17 09:15:51;;;;;;;9.38;5.43;;;;;;;12.09;99.58;99685.66;4985709;28;20042;-84
2021/05/17 09:18:17;;;;;;;8.18;4.70;;;;;;;12.18;99.59;99687.13;4981891;28;20149;-84
2021/05/17 09:20:44;;;;;;;9.60;4.93;;;;;;;12.29;99.65;99686.56;4990748;28;20121;-85
2021/05/17 09:23:24;;;;;;;7.22;4.00;;;;;;;12.28;96.39;99684.88;4991376;28;20053;-85
2021/05/17 09:25:59;;;;;;;8.98;3.78;;;;;;;12.26;93.96;99686.97;4988489;28;20174;-85
2021/05/17 09:28:41;;;;;;;8.32;3.22;;;;;;;12.27;92.82;99685.91;4983957;28;20050;-85
2021/05/17 09:31:16;;;;;;;6.68;2.70;;;;;;;12.32;91.99;99683.47;4986437;28;20042;-84
2021/05/17 09:33:47;;;;;;;6.60;2.90;;;;;;;12.29;91.70;99685.72;4967133;28;20047;-86
2021/05/17 09:36:36;;;;;;;5.47;2.83;;;;;;;12.33;91.30;99687.78;4987033;28;20050;-84
2021/05/17 09:39:07;;;;;;;5.28;2.80;;;;;;;12.36;91.08;99682.00;4956276;28;20042;-84
2021/05/17 09:41:56;;;;;;;9.18;3.78;;;;;;;12.40;89.80;99694.03;4988195;28;20058;-85
2021/05/17 09:44:28;;;;;;;4.82;2.33;;;;;;;12.41;88.51;99689.47;4983622;28;20068;-84
2021/05/17 09:47:06;;;;;;;4.85;2.33;;;;;;;12.48;88.83;99694.88;4983035;28;20038;-85
2021/05/17 09:49:31;;;;;;;6.40;2.87;;;;;;;12.57;88.85;99685.56;4966674;28;20047;-84
2021/05/17 09:52:08;;;;;;;5.38;2.45;;;;;;;12.56;87.45;99675.84;4982709;28;20046;-83
2021/05/17 09:54:56;;;;;;;6.00;2.13;;;;;;;12.60;88.02;99679.78;4970561;28;20081;-85
2021/05/17 09:57:31;;;;;;;8.82;2.28;;;;;;;12.68;87.24;99678.75;4985234;28;20061;-85
2021/05/17 10:00:04;;;;;;;6.63;2.45;;;;;;;12.80;88.34;99680.66;4985401;28;20043;-85
2021/05/17 10:02:44;;;;;;;6.40;2.78;;;;;;;12.84;86.78;99679.19;4966107;28;20384;-84
2021/05/17 10:05:21;;;;;;;8.00;2.88;;;;;;;12.87;84.89;99677.97;4930781;28;20098;-84
2021/05/17 10:07:52;;;;;;;7.05;2.33;;;;;;;12.98;85.74;99679.22;4957199;28;20051;-85
2021/05/17 10:10:21;;;;;;;4.50;2.00;;;;;;;13.00;85.24;99677.94;4946497;28;20043;-86
2021/05/17 10:12:46;;;;;;;7.38;2.40;;;;;;;12.94;84.40;99684.16;4967389;28;20050;-84
2021/05/17 10:15:13;;;;;;;5.15;2.33;;;;;;;13.01;84.61;99689.56;4951427;28;20115;-85
2021/05/17 10:17:39;;;;;;;6.22;2.63;;;;;;;13.01;85.22;99684.19;4967142;28;20122;-85
2021/05/17 10:20:08;;;;;;;4.03;2.70;;;;;;;13.03;84.66;99679.41;4969392;28;20097;-85
2021/05/17 10:22:35;;;;;;;4.70;2.50;;;;;;;13.05;84.33;99685.41;4983078;28;20372;-84
2021/05/17 10:25:06;;;;;;;4.80;2.60;;;;;;;13.05;84.15;99682.72;4989607;28;20141;-85
2021/05/17 10:27:37;;;;;;;7.15;3.08;;;;;;;13.06;83.72;99696.00;4976501;28;20053;-84
2021/05/17 10:30:07;;;;;;;3.10;1.23;;;;;;;12.81;81.30;99706.53;4966904;28;20050;-84
2021/05/17 10:32:44;;;;;;;2.63;0.80;;;;;;;12.42;81.86;99700.03;4959716;28;20101;-84
2021/05/17 10:35:19;;;;;;;2.45;0.95;;;;;;;12.14;85.99;99715.44;4968611;28;20039;-86
2021/05/17 10:37:46;;;;;;;3.20;1.45;;;;;;;11.81;90.67;99715.28;4971347;28;20042;-84
2021/05/17 10:40:35;;;;;;;3.17;1.40;;;;;;;11.70;94.58;99711.28;4967668;28;20043;-84
2021/05/17 10:43:17;;;;;;;;;;;;;;;11.42;96.11;99719.34;4995372;28;20499;-85
2021/05/17 10:48:23;;;;;;;5.32;3.03;;;;;;;11.39;100.00;99703.63;4983604;28;20046;-84
2021/05/17 10:51:08;;;;;;;8.50;2.92;;;;;;;11.43;99.46;99710.28;4944739;28;20419;-86
2021/05/17 10:53:58;;;;;;;6.18;3.28;;;;;;;11.50;100.00;99708.47;4924923;28;20051;-86
2021/05/17 10:56:46;;;;;;;8.32;4.00;;;;;;;11.72;100.00;99712.75;4943062;28;20038;-85
2021/05/17 11:02:13;;;;;;;5.30;2.45;;;;;;;11.82;99.02;99703.47;4971890;28;20073;-85
2021/05/17 11:04:48;;;;;;;4.35;2.78;;;;;;;12.18;100.00;99700.59;4963841;28;20053;-85
2021/05/17 11:07:25;;;;;;;5.88;3.17;;;;;;;12.25;98.50;99698.72;4962093;28;20060;-84
2021/05/17 11:09:53;;;;;;;5.43;3.10;;;;;;;12.33;98.77;99703.94;4948632;28;20042;-85
2021/05/17 11:12:29;;;;;;;5.27;3.27;;;;;;;12.45;98.77;99695.28;4974060;28;20101;-84
2021/05/17 11:15:10;;;;;;;5.47;3.45;;;;;;;12.51;99.89;99697.16;4986304;28;20735;-85
2021/05/17 11:18:01;;;;;;;5.40;3.30;;;;;;;12.64;100.00;99689.94;4956593;28;20078;-85
2021/05/17 11:20:43;;;;;;;9.57;3.78;;;;;;;12.66;100.00;99684.38;4957048;28;20046;-84
2021/05/17 11:23:11;;;;;;;6.63;3.90;;;;;;;12.80;100.00;99699.50;4985827;28;20069;-84
2021/05/17 11:28:45;;;;;;;7.03;3.75;;;;;;;12.65;99.52;99723.06;4987484;28;20054;-85
2021/05/17 11:34:20;;;;;;;7.45;4.30;;;;;;;12.61;100.00;99737.97;4988289;28;20042;-83
2021/05/17 11:36:51;;;;;;;7.60;4.90;;;;;;;12.39;100.00;99748.03;4991831;28;20043;-83
2021/05/17 11:39:18;;;;;;;8.30;5.10;;;;;;;12.23;100.00;99743.84;4960580;28;20054;-82
2021/05/17 11:42:03;;;;;;;8.43;4.50;;;;;;;12.14;100.00;99743.19;4994349;28;20038;-81
2021/05/17 11:47:24;;;;;;;5.95;3.40;;;;;;;11.80;99.97;99735.94;4980778;28;20065;-82
2021/05/17 11:49:51;;;;;;;6.25;3.72;;;;;;;11.86;100.00;99737.06;4988338;28;20417;-83
2021/05/17 11:52:28;;;;;;;7.95;4.03;;;;;;;11.81;100.00;99729.53;4974791;28;20053;-84
2021/05/17 11:54:59;;;;;;;8.18;4.05;;;;;;;11.77;100.00;99741.72;4992922;28;20391;-82
2021/05/17 11:57:36;;;;;;;6.85;4.20;;;;;;;11.66;100.00;99737.72;4991302;28;20372;-84
2021/05/17 12:00:13;;;;;;;7.68;4.85;;;;;;;11.60;100.00;99737.69;4986951;28;20089;-85
2021/05/17 12:02:43;;;;;;;6.18;4.15;;;;;;;11.53;100.00;99746.50;4991885;28;20038;-86
2021/05/17 12:05:09;;;;;;;9.38;5.35;;;;;;;11.53;100.00;99738.44;4991352;28;20042;-85